sensor_id;sensor_type;location;lat;lon;timestamp;temperature;humidity
67192;HTU21D;54120;53.504;49.426;2023-03-01T00:01:37;-3.75;95.37
67192;HTU21D;54120;53.504;49.426;2023-03-01T00:04:03;-3.71;95.26
67192;HTU21D;54120;53.504;49.426;2023-03-01T00:06:29;-3.67;95.27
67192;HTU21D;54120;53.504;49.426;2023-03-01T00:08:55;-3.66;95.13
67192;HTU21D;54120;53.504;49.426;2023-03-01T00:11:24;-3.67;95.18
67192;HTU21D;54120;53.504;49.426;2023-03-01T00:13:53;-3.68;95.17
67192;HTU21D;54120;53.504;49.426;2023-03-01T00:16:31;-3.71;95.46
67192;HTU21D;54120;53.504;49.426;2023-03-01T00:18:59;-3.74;95.65
67192;HTU21D;54120;53.504;49.426;2023-03-01T00:21:26;-3.72;95.69
67192;HTU21D;54120;53.504;49.426;2023-03-01T00:23:52;-3.77;95.59
67192;HTU21D;54120;53.504;49.426;2023-03-01T00:26:20;-3.74;95.67
67192;HTU21D;54120;53.504;49.426;2023-03-01T00:28:47;-3.74;95.67
67192;HTU21D;54120;53.504;49.426;2023-03-01T00:31:19;-3.68;95.75
67192;HTU21D;54120;53.504;49.426;2023-03-01T00:33:46;-3.66;95.80
67192;HTU21D;54120;53.504;49.426;2023-03-01T00:36:13;-3.68;95.77
67192;HTU21D;54120;53.504;49.426;2023-03-01T00:38:43;-3.66;95.86
67192;HTU21D;54120;53.504;49.426;2023-03-01T00:41:13;-3.67;95.84
67192;HTU21D;54120;53.504;49.426;2023-03-01T00:43:40;-3.67;95.95
67192;HTU21D;54120;53.504;49.426;2023-03-01T00:46:16;-3.63;95.90
67192;HTU21D;54120;53.504;49.426;2023-03-01T00:48:43;-3.63;95.69
67192;HTU21D;54120;53.504;49.426;2023-03-01T00:51:12;-3.63;95.70
67192;HTU21D;54120;53.504;49.426;2023-03-01T00:53:38;-3.58;95.64
67192;HTU21D;54120;53.504;49.426;2023-03-01T00:56:06;-3.56;95.67
67192;HTU21D;54120;53.504;49.426;2023-03-01T00:58:34;-3.54;95.64
67192;HTU21D;54120;53.504;49.426;2023-03-01T01:01:00;-3.54;95.62
67192;HTU21D;54120;53.504;49.426;2023-03-01T01:03:26;-3.54;95.62
67192;HTU21D;54120;53.504;49.426;2023-03-01T01:05:53;-3.51;95.65
67192;HTU21D;54120;53.504;49.426;2023-03-01T01:08:20;-3.52;95.59
67192;HTU21D;54120;53.504;49.426;2023-03-01T01:10:46;-3.52;95.56
67192;HTU21D;54120;53.504;49.426;2023-03-01T01:13:13;-3.50;95.46
67192;HTU21D;54120;53.504;49.426;2023-03-01T01:15:39;-3.53;95.46
67192;HTU21D;54120;53.504;49.426;2023-03-01T01:18:06;-3.52;95.56
67192;HTU21D;54120;53.504;49.426;2023-03-01T01:20:32;-3.50;95.62
67192;HTU21D;54120;53.504;49.426;2023-03-01T01:23:00;-3.51;95.73
67192;HTU21D;54120;53.504;49.426;2023-03-01T01:25:26;-3.52;95.78
67192;HTU21D;54120;53.504;49.426;2023-03-01T01:27:52;-3.53;95.75
67192;HTU21D;54120;53.504;49.426;2023-03-01T01:30:18;-3.53;95.88
67192;HTU21D;54120;53.504;49.426;2023-03-01T01:32:44;-3.53;95.89
67192;HTU21D;54120;53.504;49.426;2023-03-01T01:35:10;-3.52;95.99
67192;HTU21D;54120;53.504;49.426;2023-03-01T01:37:36;-3.53;95.95
67192;HTU21D;54120;53.504;49.426;2023-03-01T01:40:02;-3.51;95.91
67192;HTU21D;54120;53.504;49.426;2023-03-01T01:42:32;-3.53;95.90
67192;HTU21D;54120;53.504;49.426;2023-03-01T01:47:58;-3.51;96.19
67192;HTU21D;54120;53.504;49.426;2023-03-01T01:50:26;-3.52;96.16
67192;HTU21D;54120;53.504;49.426;2023-03-01T01:52:53;-3.51;96.29
67192;HTU21D;54120;53.504;49.426;2023-03-01T01:55:26;-3.48;96.27
67192;HTU21D;54120;53.504;49.426;2023-03-01T01:57:56;-3.50;96.17
67192;HTU21D;54120;53.504;49.426;2023-03-01T02:00:26;-3.47;96.20
67192;HTU21D;54120;53.504;49.426;2023-03-01T02:02:57;-3.46;96.04
67192;HTU21D;54120;53.504;49.426;2023-03-01T02:08:25;-3.45;95.87
67192;HTU21D;54120;53.504;49.426;2023-03-01T02:10:53;-3.43;95.78
67192;HTU21D;54120;53.504;49.426;2023-03-01T02:13:20;-3.43;95.69
67192;HTU21D;54120;53.504;49.426;2023-03-01T02:15:46;-3.39;95.88
67192;HTU21D;54120;53.504;49.426;2023-03-01T02:18:15;-3.38;95.89
67192;HTU21D;54120;53.504;49.426;2023-03-01T02:23:17;-3.38;95.61
67192;HTU21D;54120;53.504;49.426;2023-03-01T02:28:35;-3.41;95.47
67192;HTU21D;54120;53.504;49.426;2023-03-01T02:31:02;-3.42;95.43
67192;HTU21D;54120;53.504;49.426;2023-03-01T02:33:47;-3.42;95.22
67192;HTU21D;54120;53.504;49.426;2023-03-01T02:36:18;-3.41;95.17
67192;HTU21D;54120;53.504;49.426;2023-03-01T02:38:46;-3.38;95.08
67192;HTU21D;54120;53.504;49.426;2023-03-01T02:41:15;-3.41;94.93
67192;HTU21D;54120;53.504;49.426;2023-03-01T02:43:42;-3.39;94.96
67192;HTU21D;54120;53.504;49.426;2023-03-01T02:46:15;-3.40;94.94
67192;HTU21D;54120;53.504;49.426;2023-03-01T02:48:47;-3.42;94.98
67192;HTU21D;54120;53.504;49.426;2023-03-01T02:54:18;-3.39;95.34
67192;HTU21D;54120;53.504;49.426;2023-03-01T02:56:46;-3.37;95.32
67192;HTU21D;54120;53.504;49.426;2023-03-01T02:59:18;-3.35;95.39
67192;HTU21D;54120;53.504;49.426;2023-03-01T03:01:45;-3.35;95.47
67192;HTU21D;54120;53.504;49.426;2023-03-01T03:04:16;-3.35;95.49
67192;HTU21D;54120;53.504;49.426;2023-03-01T03:06:48;-3.35;95.63
67192;HTU21D;54120;53.504;49.426;2023-03-01T03:09:15;-3.33;95.82
67192;HTU21D;54120;53.504;49.426;2023-03-01T03:11:42;-3.35;96.01
67192;HTU21D;54120;53.504;49.426;2023-03-01T03:14:13;-3.35;96.31
67192;HTU21D;54120;53.504;49.426;2023-03-01T03:16:42;-3.34;96.48
67192;HTU21D;54120;53.504;49.426;2023-03-01T03:19:08;-3.35;96.51
67192;HTU21D;54120;53.504;49.426;2023-03-01T03:21:34;-3.34;96.53
67192;HTU21D;54120;53.504;49.426;2023-03-01T03:24:01;-3.36;96.61
67192;HTU21D;54120;53.504;49.426;2023-03-01T03:26:27;-3.33;96.64
67192;HTU21D;54120;53.504;49.426;2023-03-01T03:28:53;-3.32;96.65
67192;HTU21D;54120;53.504;49.426;2023-03-01T03:31:19;-3.30;96.65
67192;HTU21D;54120;53.504;49.426;2023-03-01T03:33:45;-3.27;96.68
67192;HTU21D;54120;53.504;49.426;2023-03-01T03:36:16;-3.26;96.70
67192;HTU21D;54120;53.504;49.426;2023-03-01T03:38:44;-3.24;96.75
67192;HTU21D;54120;53.504;49.426;2023-03-01T03:41:11;-3.22;96.51
67192;HTU21D;54120;53.504;49.426;2023-03-01T03:43:39;-3.23;96.55
67192;HTU21D;54120;53.504;49.426;2023-03-01T03:46:06;-3.19;96.52
67192;HTU21D;54120;53.504;49.426;2023-03-01T03:48:43;-3.19;96.46
67192;HTU21D;54120;53.504;49.426;2023-03-01T03:51:11;-3.19;96.46
67192;HTU21D;54120;53.504;49.426;2023-03-01T03:53:37;-3.18;96.45
67192;HTU21D;54120;53.504;49.426;2023-03-01T03:56:04;-3.18;96.39
67192;HTU21D;54120;53.504;49.426;2023-03-01T03:58:30;-3.10;96.39
67192;HTU21D;54120;53.504;49.426;2023-03-01T04:00:57;-3.11;96.17
67192;HTU21D;54120;53.504;49.426;2023-03-01T04:03:24;-3.07;96.03
67192;HTU21D;54120;53.504;49.426;2023-03-01T04:05:51;-3.06;95.88
67192;HTU21D;54120;53.504;49.426;2023-03-01T04:08:21;-3.03;95.78
67192;HTU21D;54120;53.504;49.426;2023-03-01T04:10:50;-2.96;95.65
67192;HTU21D;54120;53.504;49.426;2023-03-01T04:13:19;-2.91;95.24
67192;HTU21D;54120;53.504;49.426;2023-03-01T04:15:50;-2.87;94.94
67192;HTU21D;54120;53.504;49.426;2023-03-01T04:18:18;-2.86;94.48
67192;HTU21D;54120;53.504;49.426;2023-03-01T04:20:45;-2.83;94.30
67192;HTU21D;54120;53.504;49.426;2023-03-01T04:23:13;-2.80;94.10
67192;HTU21D;54120;53.504;49.426;2023-03-01T04:26:02;-2.78;93.84
67192;HTU21D;54120;53.504;49.426;2023-03-01T04:28:36;-2.71;93.49
67192;HTU21D;54120;53.504;49.426;2023-03-01T04:31:03;-2.62;92.89
67192;HTU21D;54120;53.504;49.426;2023-03-01T04:33:40;-2.53;92.18
67192;HTU21D;54120;53.504;49.426;2023-03-01T04:36:07;-2.46;91.58
67192;HTU21D;54120;53.504;49.426;2023-03-01T04:38:35;-2.43;91.12
67192;HTU21D;54120;53.504;49.426;2023-03-01T04:41:07;-2.37;90.50
67192;HTU21D;54120;53.504;49.426;2023-03-01T04:43:34;-2.27;89.99
67192;HTU21D;54120;53.504;49.426;2023-03-01T04:46:02;-2.16;89.24
67192;HTU21D;54120;53.504;49.426;2023-03-01T04:48:29;-1.97;88.21
67192;HTU21D;54120;53.504;49.426;2023-03-01T04:50:56;-1.79;87.03
67192;HTU21D;54120;53.504;49.426;2023-03-01T04:53:22;-1.60;86.16
67192;HTU21D;54120;53.504;49.426;2023-03-01T04:55:47;-1.55;85.27
67192;HTU21D;54120;53.504;49.426;2023-03-01T04:58:13;-1.58;84.78
67192;HTU21D;54120;53.504;49.426;2023-03-01T05:00:39;-1.46;84.54
67192;HTU21D;54120;53.504;49.426;2023-03-01T05:03:05;-1.47;84.03
67192;HTU21D;54120;53.504;49.426;2023-03-01T05:05:36;-1.47;84.04
67192;HTU21D;54120;53.504;49.426;2023-03-01T05:08:07;-1.63;84.49
67192;HTU21D;54120;53.504;49.426;2023-03-01T05:10:35;-1.72;85.10
67192;HTU21D;54120;53.504;49.426;2023-03-01T05:13:03;-1.77;85.06
67192;HTU21D;54120;53.504;49.426;2023-03-01T05:15:31;-1.70;84.83
67192;HTU21D;54120;53.504;49.426;2023-03-01T05:17:58;-1.65;84.65
67192;HTU21D;54120;53.504;49.426;2023-03-01T05:20:29;-1.53;84.10
67192;HTU21D;54120;53.504;49.426;2023-03-01T05:22:58;-1.34;83.45
67192;HTU21D;54120;53.504;49.426;2023-03-01T05:25:24;-1.24;82.56
67192;HTU21D;54120;53.504;49.426;2023-03-01T05:27:51;-1.17;82.28
67192;HTU21D;54120;53.504;49.426;2023-03-01T05:30:17;-0.97;81.37
67192;HTU21D;54120;53.504;49.426;2023-03-01T05:32:46;-0.90;80.80
67192;HTU21D;54120;53.504;49.426;2023-03-01T05:35:14;-0.94;80.78
67192;HTU21D;54120;53.504;49.426;2023-03-01T05:37:42;-0.99;81.14
67192;HTU21D;54120;53.504;49.426;2023-03-01T05:40:17;-1.01;81.32
67192;HTU21D;54120;53.504;49.426;2023-03-01T05:42:47;-0.82;80.98
67192;HTU21D;54120;53.504;49.426;2023-03-01T05:45:14;-0.53;79.32
67192;HTU21D;54120;53.504;49.426;2023-03-01T05:47:41;-0.55;79.48
67192;HTU21D;54120;53.504;49.426;2023-03-01T05:52:37;-0.19;77.89
67192;HTU21D;54120;53.504;49.426;2023-03-01T05:55:03;0.09;76.48
67192;HTU21D;54120;53.504;49.426;2023-03-01T05:57:30;0.07;75.67
67192;HTU21D;54120;53.504;49.426;2023-03-01T05:59:56;0.39;74.99
67192;HTU21D;54120;53.504;49.426;2023-03-01T06:02:23;0.89;73.31
67192;HTU21D;54120;53.504;49.426;2023-03-01T06:04:49;0.97;72.26
67192;HTU21D;54120;53.504;49.426;2023-03-01T06:07:14;1.25;70.93
67192;HTU21D;54120;53.504;49.426;2023-03-01T06:09:40;1.45;70.07
67192;HTU21D;54120;53.504;49.426;2023-03-01T06:12:06;1.36;70.00
67192;HTU21D;54120;53.504;49.426;2023-03-01T06:14:32;1.02;71.88
67192;HTU21D;54120;53.504;49.426;2023-03-01T06:16:58;0.89;71.93
67192;HTU21D;54120;53.504;49.426;2023-03-01T06:19:24;0.55;73.69
67192;HTU21D;54120;53.504;49.426;2023-03-01T06:21:50;0.49;74.46
67192;HTU21D;54120;53.504;49.426;2023-03-01T06:24:16;0.42;75.02
67192;HTU21D;54120;53.504;49.426;2023-03-01T06:26:42;0.62;74.89
67192;HTU21D;54120;53.504;49.426;2023-03-01T06:29:11;0.79;74.22
67192;HTU21D;54120;53.504;49.426;2023-03-01T06:31:37;0.95;73.16
67192;HTU21D;54120;53.504;49.426;2023-03-01T06:34:03;1.22;71.63
67192;HTU21D;54120;53.504;49.426;2023-03-01T06:36:29;1.21;71.20
67192;HTU21D;54120;53.504;49.426;2023-03-01T06:38:54;0.87;72.56
67192;HTU21D;54120;53.504;49.426;2023-03-01T06:41:20;0.53;73.96
67192;HTU21D;54120;53.504;49.426;2023-03-01T06:43:46;0.23;75.69
67192;HTU21D;54120;53.504;49.426;2023-03-01T06:46:12;-0.06;75.63
67192;HTU21D;54120;53.504;49.426;2023-03-01T06:48:38;-0.06;74.34
67192;HTU21D;54120;53.504;49.426;2023-03-01T06:51:04;-0.16;74.30
67192;HTU21D;54120;53.504;49.426;2023-03-01T06:53:30;-0.36;74.83
67192;HTU21D;54120;53.504;49.426;2023-03-01T06:55:57;-0.30;75.18
67192;HTU21D;54120;53.504;49.426;2023-03-01T06:58:26;-0.24;74.10
67192;HTU21D;54120;53.504;49.426;2023-03-01T07:00:52;-0.35;73.54
67192;HTU21D;54120;53.504;49.426;2023-03-01T07:03:18;-0.49;75.29
67192;HTU21D;54120;53.504;49.426;2023-03-01T07:05:44;-0.36;75.76
67192;HTU21D;54120;53.504;49.426;2023-03-01T07:08:10;-0.09;76.21
67192;HTU21D;54120;53.504;49.426;2023-03-01T07:10:36;1.06;70.65
67192;HTU21D;54120;53.504;49.426;2023-03-01T07:13:03;1.94;66.55
67192;HTU21D;54120;53.504;49.426;2023-03-01T07:15:28;2.06;65.17
67192;HTU21D;54120;53.504;49.426;2023-03-01T07:17:56;1.85;66.14
67192;HTU21D;54120;53.504;49.426;2023-03-01T07:20:22;2.11;65.39
67192;HTU21D;54120;53.504;49.426;2023-03-01T07:22:53;3.06;62.85
67192;HTU21D;54120;53.504;49.426;2023-03-01T07:25:19;3.28;60.12
67192;HTU21D;54120;53.504;49.426;2023-03-01T07:27:52;3.25;60.15
67192;HTU21D;54120;53.504;49.426;2023-03-01T07:30:19;3.21;60.57
67192;HTU21D;54120;53.504;49.426;2023-03-01T07:32:46;3.12;58.77
67192;HTU21D;54120;53.504;49.426;2023-03-01T07:35:12;2.74;59.95
67192;HTU21D;54120;53.504;49.426;2023-03-01T07:37:38;2.78;61.11
67192;HTU21D;54120;53.504;49.426;2023-03-01T07:40:04;2.21;61.15
67192;HTU21D;54120;53.504;49.426;2023-03-01T07:42:30;1.98;62.32
67192;HTU21D;54120;53.504;49.426;2023-03-01T07:44:56;1.95;61.76
67192;HTU21D;54120;53.504;49.426;2023-03-01T07:47:22;2.03;60.70
67192;HTU21D;54120;53.504;49.426;2023-03-01T07:49:48;2.29;61.15
67192;HTU21D;54120;53.504;49.426;2023-03-01T07:52:14;2.10;60.89
67192;HTU21D;54120;53.504;49.426;2023-03-01T07:54:43;2.13;60.47
67192;HTU21D;54120;53.504;49.426;2023-03-01T07:57:10;2.51;58.32
67192;HTU21D;54120;53.504;49.426;2023-03-01T07:59:36;2.78;57.95
67192;HTU21D;54120;53.504;49.426;2023-03-01T08:02:02;3.00;56.72
67192;HTU21D;54120;53.504;49.426;2023-03-01T08:04:28;2.87;55.81
67192;HTU21D;54120;53.504;49.426;2023-03-01T08:06:54;2.83;56.73
67192;HTU21D;54120;53.504;49.426;2023-03-01T08:09:21;2.53;55.96
67192;HTU21D;54120;53.504;49.426;2023-03-01T08:11:47;2.22;57.36
67192;HTU21D;54120;53.504;49.426;2023-03-01T08:16:25;1.45;58.86
67192;HTU21D;54120;53.504;49.426;2023-03-01T08:18:51;1.09;59.16
67192;HTU21D;54120;53.504;49.426;2023-03-01T08:21:18;1.05;58.88
67192;HTU21D;54120;53.504;49.426;2023-03-01T08:23:44;0.61;60.56
67192;HTU21D;54120;53.504;49.426;2023-03-01T08:26:12;0.35;60.60
67192;HTU21D;54120;53.504;49.426;2023-03-01T08:28:38;0.30;61.79
67192;HTU21D;54120;53.504;49.426;2023-03-01T08:31:26;0.28;61.50
67192;HTU21D;54120;53.504;49.426;2023-03-01T08:33:56;1.03;58.90
67192;HTU21D;54120;53.504;49.426;2023-03-01T08:36:24;1.69;56.16
67192;HTU21D;54120;53.504;49.426;2023-03-01T08:38:51;1.36;57.71
67192;HTU21D;54120;53.504;49.426;2023-03-01T08:41:17;0.84;58.71
67192;HTU21D;54120;53.504;49.426;2023-03-01T08:43:44;1.03;58.59
67192;HTU21D;54120;53.504;49.426;2023-03-01T08:46:11;1.02;58.00
67192;HTU21D;54120;53.504;49.426;2023-03-01T08:48:37;1.25;58.38
67192;HTU21D;54120;53.504;49.426;2023-03-01T08:51:14;1.52;56.08
67192;HTU21D;54120;53.504;49.426;2023-03-01T08:53:41;1.36;55.60
67192;HTU21D;54120;53.504;49.426;2023-03-01T08:56:08;1.04;56.95
67192;HTU21D;54120;53.504;49.426;2023-03-01T08:58:35;0.60;58.84
67192;HTU21D;54120;53.504;49.426;2023-03-01T09:01:07;0.04;59.92
67192;HTU21D;54120;53.504;49.426;2023-03-01T09:03:33;0.32;60.14
67192;HTU21D;54120;53.504;49.426;2023-03-01T09:06:03;1.05;57.27
67192;HTU21D;54120;53.504;49.426;2023-03-01T09:08:30;1.84;56.33
67192;HTU21D;54120;53.504;49.426;2023-03-01T09:10:56;3.01;52.43
67192;HTU21D;54120;53.504;49.426;2023-03-01T09:13:22;3.13;51.70
67192;HTU21D;54120;53.504;49.426;2023-03-01T09:15:52;2.27;52.53
67192;HTU21D;54120;53.504;49.426;2023-03-01T09:18:18;1.29;55.57
67192;HTU21D;54120;53.504;49.426;2023-03-01T09:20:44;0.79;58.38
67192;HTU21D;54120;53.504;49.426;2023-03-01T09:23:10;1.21;57.84
67192;HTU21D;54120;53.504;49.426;2023-03-01T09:25:36;1.67;55.15
67192;HTU21D;54120;53.504;49.426;2023-03-01T09:28:02;1.63;55.12
67192;HTU21D;54120;53.504;49.426;2023-03-01T09:30:29;1.98;54.55
67192;HTU21D;54120;53.504;49.426;2023-03-01T09:32:56;1.32;55.82
67192;HTU21D;54120;53.504;49.426;2023-03-01T09:35:22;0.68;57.31
67192;HTU21D;54120;53.504;49.426;2023-03-01T09:37:49;0.25;59.93
67192;HTU21D;54120;53.504;49.426;2023-03-01T09:40:21;-0.07;59.96
67192;HTU21D;54120;53.504;49.426;2023-03-01T09:42:56;-0.61;58.50
67192;HTU21D;54120;53.504;49.426;2023-03-01T09:45:29;-0.77;58.38
67192;HTU21D;54120;53.504;49.426;2023-03-01T09:48:00;-0.61;58.69
67192;HTU21D;54120;53.504;49.426;2023-03-01T09:50:28;-0.59;59.73
67192;HTU21D;54120;53.504;49.426;2023-03-01T09:53:30;-0.23;58.04
67192;HTU21D;54120;53.504;49.426;2023-03-01T09:58:31;0.53;53.04
67192;HTU21D;54120;53.504;49.426;2023-03-01T10:06:43;0.27;53.89
67192;HTU21D;54120;53.504;49.426;2023-03-01T10:09:14;0.07;55.61
67192;HTU21D;54120;53.504;49.426;2023-03-01T10:11:45;0.14;56.43
67192;HTU21D;54120;53.504;49.426;2023-03-01T10:19:41;1.54;56.40
67192;HTU21D;54120;53.504;49.426;2023-03-01T10:22:17;1.24;58.98
67192;HTU21D;54120;53.504;49.426;2023-03-01T10:24:47;1.63;57.59
67192;HTU21D;54120;53.504;49.426;2023-03-01T10:29:48;2.65;54.69
67192;HTU21D;54120;53.504;49.426;2023-03-01T10:32:16;1.37;58.36
67192;HTU21D;54120;53.504;49.426;2023-03-01T10:34:43;0.93;60.26
67192;HTU21D;54120;53.504;49.426;2023-03-01T10:37:17;0.86;60.98
67192;HTU21D;54120;53.504;49.426;2023-03-01T10:44:54;-0.52;63.15
67192;HTU21D;54120;53.504;49.426;2023-03-01T10:47:25;-0.67;62.70
67192;HTU21D;54120;53.504;49.426;2023-03-01T10:49:58;-0.84;61.00
67192;HTU21D;54120;53.504;49.426;2023-03-01T10:52:28;-1.04;60.80
67192;HTU21D;54120;53.504;49.426;2023-03-01T10:55:21;-0.86;60.62
67192;HTU21D;54120;53.504;49.426;2023-03-01T10:57:41;-1.08;60.39
67192;HTU21D;54120;53.504;49.426;2023-03-01T11:02:50;-0.71;57.90
67192;HTU21D;54120;53.504;49.426;2023-03-01T11:05:20;-0.80;58.64
67192;HTU21D;54120;53.504;49.426;2023-03-01T11:07:48;-0.84;58.92
67192;HTU21D;54120;53.504;49.426;2023-03-01T11:10:20;-0.77;58.50
67192;HTU21D;54120;53.504;49.426;2023-03-01T11:12:46;-0.68;58.80
67192;HTU21D;54120;53.504;49.426;2023-03-01T11:15:39;-0.52;58.00
67192;HTU21D;54120;53.504;49.426;2023-03-01T11:18:21;-0.52;57.13
67192;HTU21D;54120;53.504;49.426;2023-03-01T11:20:49;-0.54;57.03
67192;HTU21D;54120;53.504;49.426;2023-03-01T11:23:17;-0.39;57.89
67192;HTU21D;54120;53.504;49.426;2023-03-01T11:25:54;-0.10;57.05
67192;HTU21D;54120;53.504;49.426;2023-03-01T11:28:21;0.40;56.10
67192;HTU21D;54120;53.504;49.426;2023-03-01T11:30:59;0.75;54.49
67192;HTU21D;54120;53.504;49.426;2023-03-01T11:38:35;0.34;54.11
67192;HTU21D;54120;53.504;49.426;2023-03-01T11:41:14;-0.12;54.42
67192;HTU21D;54120;53.504;49.426;2023-03-01T11:57:00;0.60;49.41
67192;HTU21D;54120;53.504;49.426;2023-03-01T12:10:56;0.32;52.38
67192;HTU21D;54120;53.504;49.426;2023-03-01T12:28:14;-0.75;58.09
67192;HTU21D;54120;53.504;49.426;2023-03-01T12:41:57;-1.54;68.54
67192;HTU21D;54120;53.504;49.426;2023-03-01T12:47:36;-1.41;65.66
67192;HTU21D;54120;53.504;49.426;2023-03-01T12:50:39;-1.25;64.75
67192;HTU21D;54120;53.504;49.426;2023-03-01T12:53:22;-1.12;63.91
67192;HTU21D;54120;53.504;49.426;2023-03-01T12:55:51;-1.20;62.57
67192;HTU21D;54120;53.504;49.426;2023-03-01T12:58:32;-1.40;62.58
67192;HTU21D;54120;53.504;49.426;2023-03-01T13:04:02;-1.41;61.87
67192;HTU21D;54120;53.504;49.426;2023-03-01T13:09:13;-1.65;60.44
67192;HTU21D;54120;53.504;49.426;2023-03-01T13:11:43;-1.73;60.73
67192;HTU21D;54120;53.504;49.426;2023-03-01T13:14:43;-1.79;60.93
67192;HTU21D;54120;53.504;49.426;2023-03-01T13:17:34;-2.06;61.50
67192;HTU21D;54120;53.504;49.426;2023-03-01T13:20:12;-2.13;58.65
67192;HTU21D;54120;53.504;49.426;2023-03-01T13:22:38;-2.30;59.90
67192;HTU21D;54120;53.504;49.426;2023-03-01T13:25:17;-2.53;60.09
67192;HTU21D;54120;53.504;49.426;2023-03-01T13:27:45;-2.71;60.98
67192;HTU21D;54120;53.504;49.426;2023-03-01T13:35:57;-2.96;61.36
67192;HTU21D;54120;53.504;49.426;2023-03-01T13:38:56;-3.07;60.80
67192;HTU21D;54120;53.504;49.426;2023-03-01T13:41:50;-3.09;61.02
67192;HTU21D;54120;53.504;49.426;2023-03-01T13:47:01;-3.10;60.82
67192;HTU21D;54120;53.504;49.426;2023-03-01T13:49:57;-3.17;60.69
67192;HTU21D;54120;53.504;49.426;2023-03-01T13:52:39;-3.21;61.25
67192;HTU21D;54120;53.504;49.426;2023-03-01T13:55:48;-3.22;61.07
67192;HTU21D;54120;53.504;49.426;2023-03-01T13:58:24;-3.17;60.91
67192;HTU21D;54120;53.504;49.426;2023-03-01T14:01:07;-3.25;60.12
67192;HTU21D;54120;53.504;49.426;2023-03-01T14:03:46;-3.32;60.01
67192;HTU21D;54120;53.504;49.426;2023-03-01T14:06:19;-3.39;60.64
67192;HTU21D;54120;53.504;49.426;2023-03-01T14:08:47;-3.40;60.67
67192;HTU21D;54120;53.504;49.426;2023-03-01T14:17:11;-3.42;62.37
67192;HTU21D;54120;53.504;49.426;2023-03-01T14:19:40;-3.32;62.41
67192;HTU21D;54120;53.504;49.426;2023-03-01T14:22:33;-3.30;62.51
67192;HTU21D;54120;53.504;49.426;2023-03-01T14:25:34;-3.25;62.47
67192;HTU21D;54120;53.504;49.426;2023-03-01T14:28:05;-3.25;61.94
67192;HTU21D;54120;53.504;49.426;2023-03-01T14:30:42;-3.24;62.98
67192;HTU21D;54120;53.504;49.426;2023-03-01T14:36:05;-3.40;64.05
67192;HTU21D;54120;53.504;49.426;2023-03-01T14:38:33;-3.49;64.22
67192;HTU21D;54120;53.504;49.426;2023-03-01T14:41:12;-3.64;65.01
67192;HTU21D;54120;53.504;49.426;2023-03-01T14:43:44;-3.76;65.62
67192;HTU21D;54120;53.504;49.426;2023-03-01T14:46:20;-3.91;66.28
67192;HTU21D;54120;53.504;49.426;2023-03-01T14:48:55;-3.96;66.60
67192;HTU21D;54120;53.504;49.426;2023-03-01T14:51:22;-3.97;66.56
67192;HTU21D;54120;53.504;49.426;2023-03-01T14:53:48;-3.95;65.98
67192;HTU21D;54120;53.504;49.426;2023-03-01T14:56:16;-3.91;66.39
67192;HTU21D;54120;53.504;49.426;2023-03-01T14:58:43;-3.90;66.01
67192;HTU21D;54120;53.504;49.426;2023-03-01T15:01:16;-3.90;65.56
67192;HTU21D;54120;53.504;49.426;2023-03-01T15:03:46;-3.82;65.04
67192;HTU21D;54120;53.504;49.426;2023-03-01T15:06:21;-3.74;64.46
67192;HTU21D;54120;53.504;49.426;2023-03-01T15:08:52;-3.68;64.97
67192;HTU21D;54120;53.504;49.426;2023-03-01T15:11:24;-3.78;65.50
67192;HTU21D;54120;53.504;49.426;2023-03-01T15:13:52;-3.78;65.81
67192;HTU21D;54120;53.504;49.426;2023-03-01T15:16:27;-3.83;65.57
67192;HTU21D;54120;53.504;49.426;2023-03-01T15:19:00;-3.95;66.59
67192;HTU21D;54120;53.504;49.426;2023-03-01T15:21:37;-4.08;67.30
67192;HTU21D;54120;53.504;49.426;2023-03-01T15:26:58;-4.27;68.97
67192;HTU21D;54120;53.504;49.426;2023-03-01T15:29:30;-4.31;69.97
67192;HTU21D;54120;53.504;49.426;2023-03-01T15:34:57;-4.29;71.19
67192;HTU21D;54120;53.504;49.426;2023-03-01T15:40:29;-4.37;71.67
67192;HTU21D;54120;53.504;49.426;2023-03-01T15:45:26;-4.42;71.64
67192;HTU21D;54120;53.504;49.426;2023-03-01T15:47:58;-4.36;71.77
67192;HTU21D;54120;53.504;49.426;2023-03-01T15:50:30;-4.23;72.13
67192;HTU21D;54120;53.504;49.426;2023-03-01T15:52:59;-4.15;71.82
67192;HTU21D;54120;53.504;49.426;2023-03-01T15:55:29;-4.10;72.41
67192;HTU21D;54120;53.504;49.426;2023-03-01T15:58:00;-4.07;72.70
67192;HTU21D;54120;53.504;49.426;2023-03-01T16:00:26;-4.02;73.12
67192;HTU21D;54120;53.504;49.426;2023-03-01T16:02:52;-4.00;73.58
67192;HTU21D;54120;53.504;49.426;2023-03-01T16:07:46;-4.05;73.44
67192;HTU21D;54120;53.504;49.426;2023-03-01T16:10:12;-4.17;73.36
67192;HTU21D;54120;53.504;49.426;2023-03-01T16:12:38;-4.24;74.10
67192;HTU21D;54120;53.504;49.426;2023-03-01T16:15:18;-4.29;74.67
67192;HTU21D;54120;53.504;49.426;2023-03-01T16:17:45;-4.34;74.99
67192;HTU21D;54120;53.504;49.426;2023-03-01T16:20:11;-4.41;75.41
67192;HTU21D;54120;53.504;49.426;2023-03-01T16:22:38;-4.41;75.83
67192;HTU21D;54120;53.504;49.426;2023-03-01T16:25:05;-4.40;75.63
67192;HTU21D;54120;53.504;49.426;2023-03-01T16:27:31;-4.38;76.12
67192;HTU21D;54120;53.504;49.426;2023-03-01T16:29:57;-4.38;76.09
67192;HTU21D;54120;53.504;49.426;2023-03-01T16:32:23;-4.40;76.15
67192;HTU21D;54120;53.504;49.426;2023-03-01T16:34:51;-4.38;76.47
67192;HTU21D;54120;53.504;49.426;2023-03-01T16:37:17;-4.39;76.50
67192;HTU21D;54120;53.504;49.426;2023-03-01T16:39:44;-4.40;75.96
67192;HTU21D;54120;53.504;49.426;2023-03-01T16:42:10;-4.38;76.37
67192;HTU21D;54120;53.504;49.426;2023-03-01T16:44:36;-4.39;75.92
67192;HTU21D;54120;53.504;49.426;2023-03-01T16:47:03;-4.40;75.60
67192;HTU21D;54120;53.504;49.426;2023-03-01T16:49:28;-4.41;75.13
67192;HTU21D;54120;53.504;49.426;2023-03-01T16:51:55;-4.41;74.69
67192;HTU21D;54120;53.504;49.426;2023-03-01T16:54:21;-4.34;75.28
67192;HTU21D;54120;53.504;49.426;2023-03-01T16:56:47;-4.38;74.37
67192;HTU21D;54120;53.504;49.426;2023-03-01T16:59:13;-4.39;74.75
67192;HTU21D;54120;53.504;49.426;2023-03-01T17:01:40;-4.40;74.47
67192;HTU21D;54120;53.504;49.426;2023-03-01T17:04:11;-4.41;74.00
67192;HTU21D;54120;53.504;49.426;2023-03-01T17:06:37;-4.41;72.84
67192;HTU21D;54120;53.504;49.426;2023-03-01T17:09:03;-4.38;72.06
67192;HTU21D;54120;53.504;49.426;2023-03-01T17:11:29;-4.37;71.92
67192;HTU21D;54120;53.504;49.426;2023-03-01T17:13:55;-4.38;71.38
67192;HTU21D;54120;53.504;49.426;2023-03-01T17:16:22;-4.35;71.94
67192;HTU21D;54120;53.504;49.426;2023-03-01T17:18:48;-4.34;71.81
67192;HTU21D;54120;53.504;49.426;2023-03-01T17:21:14;-4.31;71.25
67192;HTU21D;54120;53.504;49.426;2023-03-01T17:23:44;-4.29;71.84
67192;HTU21D;54120;53.504;49.426;2023-03-01T17:26:10;-4.29;71.61
67192;HTU21D;54120;53.504;49.426;2023-03-01T17:28:37;-4.34;71.81
67192;HTU21D;54120;53.504;49.426;2023-03-01T17:31:05;-4.36;71.82
67192;HTU21D;54120;53.504;49.426;2023-03-01T17:33:32;-4.40;70.68
67192;HTU21D;54120;53.504;49.426;2023-03-01T17:35:58;-4.41;71.06
67192;HTU21D;54120;53.504;49.426;2023-03-01T17:38:27;-4.42;70.90